sensor_id;sensor_type;location;lat;lon;timestamp;pressure;altitude;pressure_sealevel;temperature;humidity
72370;BME280;60343;-32.030;115.880;2023-07-30T00:02:06;102740.50;;;14.44;97.32
72370;BME280;60343;-32.030;115.880;2023-07-30T00:04:46;102743.72;;;14.57;96.14
72370;BME280;60343;-32.030;115.880;2023-07-30T00:07:22;102744.31;;;14.51;96.26
72370;BME280;60343;-32.030;115.880;2023-07-30T00:09:56;102741.94;;;14.48;96.92
72370;BME280;60343;-32.030;115.880;2023-07-30T00:12:30;102744.97;;;14.63;96.12
72370;BME280;60343;-32.030;115.880;2023-07-30T00:15:06;102748.19;;;14.66;95.39
72370;BME280;60343;-32.030;115.880;2023-07-30T00:17:40;102745.25;;;14.59;96.28
72370;BME280;60343;-32.030;115.880;2023-07-30T00:20:20;102757.19;;;14.57;96.20
72370;BME280;60343;-32.030;115.880;2023-07-30T00:22:55;102757.19;;;14.57;96.24
72370;BME280;60343;-32.030;115.880;2023-07-30T00:25:29;102765.53;;;14.64;96.72
72370;BME280;60343;-32.030;115.880;2023-07-30T00:28:04;102770.34;;;14.60;96.83
72370;BME280;60343;-32.030;115.880;2023-07-30T00:30:39;102773.63;;;14.64;97.35
72370;BME280;60343;-32.030;115.880;2023-07-30T00:33:13;102769.94;;;14.82;96.59
72370;BME280;60343;-32.030;115.880;2023-07-30T00:35:53;102773.72;;;14.89;95.88
72370;BME280;60343;-32.030;115.880;2023-07-30T00:38:28;102784.34;;;14.91;96.04
72370;BME280;60343;-32.030;115.880;2023-07-30T00:41:03;102791.78;;;15.07;95.16
72370;BME280;60343;-32.030;115.880;2023-07-30T00:43:38;102785.22;;;15.09;95.18
72370;BME280;60343;-32.030;115.880;2023-07-30T00:46:13;102794.31;;;15.08;95.10
72370;BME280;60343;-32.030;115.880;2023-07-30T00:48:47;102794.41;;;15.16;95.07
72370;BME280;60343;-32.030;115.880;2023-07-30T00:51:28;102790.75;;;15.25;95.12
72370;BME280;60343;-32.030;115.880;2023-07-30T00:54:03;102799.72;;;15.43;94.31
72370;BME280;60343;-32.030;115.880;2023-07-30T00:56:38;102793.16;;;15.64;93.07
72370;BME280;60343;-32.030;115.880;2023-07-30T00:59:16;102800.69;;;15.78;91.26
72370;BME280;60343;-32.030;115.880;2023-07-30T01:01:52;102798.88;;;16.04;90.33
72370;BME280;60343;-32.030;115.880;2023-07-30T01:04:27;102796.19;;;16.12;90.39
72370;BME280;60343;-32.030;115.880;2023-07-30T01:07:07;102795.88;;;16.15;89.95
72370;BME280;60343;-32.030;115.880;2023-07-30T01:09:42;102792.50;;;16.13;89.34
72370;BME280;60343;-32.030;115.880;2023-07-30T01:12:16;102796.22;;;16.20;89.97
72370;BME280;60343;-32.030;115.880;2023-07-30T01:14:51;102804.63;;;16.43;89.63
72370;BME280;60343;-32.030;115.880;2023-07-30T01:17:27;102806.50;;;16.51;88.76
72370;BME280;60343;-32.030;115.880;2023-07-30T01:20:02;102809.97;;;16.61;88.04
72370;BME280;60343;-32.030;115.880;2023-07-30T01:22:43;102812.53;;;16.70;88.05
72370;BME280;60343;-32.030;115.880;2023-07-30T01:25:17;102815.16;;;16.88;86.40
72370;BME280;60343;-32.030;115.880;2023-07-30T01:27:55;102814.00;;;16.99;86.51
72370;BME280;60343;-32.030;115.880;2023-07-30T01:30:32;102819.25;;;17.16;83.88
72370;BME280;60343;-32.030;115.880;2023-07-30T01:33:08;102825.72;;;17.24;84.21
72370;BME280;60343;-32.030;115.880;2023-07-30T01:35:44;102815.91;;;17.31;84.00
72370;BME280;60343;-32.030;115.880;2023-07-30T01:38:25;102830.63;;;17.36;84.07
72370;BME280;60343;-32.030;115.880;2023-07-30T01:40:59;102827.75;;;17.38;83.63
72370;BME280;60343;-32.030;115.880;2023-07-30T01:43:34;102824.34;;;17.36;83.01
72370;BME280;60343;-32.030;115.880;2023-07-30T01:46:09;102829.13;;;17.34;83.45
72370;BME280;60343;-32.030;115.880;2023-07-30T01:48:43;102836.22;;;17.51;82.71
72370;BME280;60343;-32.030;115.880;2023-07-30T01:51:18;102829.84;;;18.48;81.23
72370;BME280;60343;-32.030;115.880;2023-07-30T01:53:58;102842.97;;;19.14;77.88
72370;BME280;60343;-32.030;115.880;2023-07-30T01:56:33;102839.16;;;19.77;74.03
72370;BME280;60343;-32.030;115.880;2023-07-30T01:59:07;102837.97;;;19.94;73.04
72370;BME280;60343;-32.030;115.880;2023-07-30T02:01:42;102839.78;;;20.16;71.58
72370;BME280;60343;-32.030;115.880;2023-07-30T02:04:17;102843.13;;;20.03;71.65
72370;BME280;60343;-32.030;115.880;2023-07-30T02:06:51;102845.09;;;19.72;71.99
72370;BME280;60343;-32.030;115.880;2023-07-30T02:09:31;102851.13;;;19.37;72.86
72370;BME280;60343;-32.030;115.880;2023-07-30T02:12:07;102848.56;;;19.12;74.10
72370;BME280;60343;-32.030;115.880;2023-07-30T02:14:41;102857.91;;;18.79;74.88
72370;BME280;60343;-32.030;115.880;2023-07-30T02:17:16;102860.00;;;18.53;76.69
72370;BME280;60343;-32.030;115.880;2023-07-30T02:19:50;102849.94;;;18.30;77.23
72370;BME280;60343;-32.030;115.880;2023-07-30T02:22:25;102855.34;;;18.22;77.28
72370;BME280;60343;-32.030;115.880;2023-07-30T02:25:06;102848.09;;;18.15;77.49
72370;BME280;60343;-32.030;115.880;2023-07-30T02:27:40;102857.59;;;18.11;77.46
72370;BME280;60343;-32.030;115.880;2023-07-30T02:30:15;102852.16;;;18.11;78.14
72370;BME280;60343;-32.030;115.880;2023-07-30T02:32:49;102850.41;;;18.26;76.70
72370;BME280;60343;-32.030;115.880;2023-07-30T02:35:24;102848.13;;;18.62;76.44
72370;BME280;60343;-32.030;115.880;2023-07-30T02:37:58;102852.59;;;18.94;73.32
72370;BME280;60343;-32.030;115.880;2023-07-30T02:40:38;102854.38;;;19.09;74.39
72370;BME280;60343;-32.030;115.880;2023-07-30T02:43:13;102855.69;;;19.44;72.74
72370;BME280;60343;-32.030;115.880;2023-07-30T02:45:48;102853.75;;;19.76;70.08
72370;BME280;60343;-32.030;115.880;2023-07-30T02:48:23;102853.81;;;19.90;69.02
72370;BME280;60343;-32.030;115.880;2023-07-30T02:50:57;102848.84;;;20.08;68.20
72370;BME280;60343;-32.030;115.880;2023-07-30T02:53:32;102852.22;;;19.96;68.11
72370;BME280;60343;-32.030;115.880;2023-07-30T02:56:12;102851.75;;;19.69;67.41
72370;BME280;60343;-32.030;115.880;2023-07-30T02:58:46;102844.75;;;19.29;68.34
72370;BME280;60343;-32.030;115.880;2023-07-30T03:01:21;102846.88;;;19.11;68.12
72370;BME280;60343;-32.030;115.880;2023-07-30T03:03:55;102856.38;;;18.84;69.71
72370;BME280;60343;-32.030;115.880;2023-07-30T03:06:30;102851.06;;;18.36;72.60
72370;BME280;60343;-32.030;115.880;2023-07-30T03:09:05;102853.50;;;18.07;74.34
72370;BME280;60343;-32.030;115.880;2023-07-30T03:11:45;102851.31;;;17.62;75.55
72370;BME280;60343;-32.030;115.880;2023-07-30T03:14:20;102844.00;;;17.38;77.21
72370;BME280;60343;-32.030;115.880;2023-07-30T03:16:55;102843.66;;;17.25;78.43
72370;BME280;60343;-32.030;115.880;2023-07-30T03:19:29;102842.78;;;17.16;79.66
72370;BME280;60343;-32.030;115.880;2023-07-30T03:22:04;102834.84;;;17.14;80.45
72370;BME280;60343;-32.030;115.880;2023-07-30T03:24:39;102825.22;;;17.20;82.24
72370;BME280;60343;-32.030;115.880;2023-07-30T03:27:19;102828.75;;;17.37;81.14
72370;BME280;60343;-32.030;115.880;2023-07-30T03:29:53;102817.63;;;17.48;81.58
72370;BME280;60343;-32.030;115.880;2023-07-30T03:32:28;102812.91;;;17.66;80.60
72370;BME280;60343;-32.030;115.880;2023-07-30T03:35:02;102801.72;;;17.77;80.03
72370;BME280;60343;-32.030;115.880;2023-07-30T03:37:37;102797.47;;;17.91;78.97
72370;BME280;60343;-32.030;115.880;2023-07-30T03:40:12;102802.84;;;18.07;78.52
72370;BME280;60343;-32.030;115.880;2023-07-30T03:42:53;102805.84;;;18.28;76.47
72370;BME280;60343;-32.030;115.880;2023-07-30T03:45:28;102796.97;;;18.51;77.50
72370;BME280;60343;-32.030;115.880;2023-07-30T03:48:02;102801.47;;;18.74;75.60
72370;BME280;60343;-32.030;115.880;2023-07-30T03:50:37;102794.44;;;18.88;73.81
72370;BME280;60343;-32.030;115.880;2023-07-30T03:53:12;102787.44;;;19.16;73.08
72370;BME280;60343;-32.030;115.880;2023-07-30T03:55:46;102787.28;;;19.41;72.83
72370;BME280;60343;-32.030;115.880;2023-07-30T03:58:26;102780.91;;;19.56;70.20
72370;BME280;60343;-32.030;115.880;2023-07-30T04:01:01;102771.69;;;19.57;70.95
72370;BME280;60343;-32.030;115.880;2023-07-30T04:03:36;102770.84;;;19.57;70.58
72370;BME280;60343;-32.030;115.880;2023-07-30T04:06:14;102764.06;;;19.61;68.96
72370;BME280;60343;-32.030;115.880;2023-07-30T04:08:48;102767.38;;;19.25;70.53
72370;BME280;60343;-32.030;115.880;2023-07-30T04:11:23;102760.38;;;19.08;71.07
72370;BME280;60343;-32.030;115.880;2023-07-30T04:14:03;102756.25;;;18.90;71.27
72370;BME280;60343;-32.030;115.880;2023-07-30T04:16:37;102750.16;;;18.57;72.96
72370;BME280;60343;-32.030;115.880;2023-07-30T04:19:14;102749.94;;;18.27;74.12
72370;BME280;60343;-32.030;115.880;2023-07-30T04:21:49;102740.72;;;18.06;74.95
72370;BME280;60343;-32.030;115.880;2023-07-30T04:24:23;102744.13;;;17.91;75.87
72370;BME280;60343;-32.030;115.880;2023-07-30T04:26:58;102742.44;;;17.90;76.27
72370;BME280;60343;-32.030;115.880;2023-07-30T04:29:39;102730.34;;;18.09;74.87
72370;BME280;60343;-32.030;115.880;2023-07-30T04:32:13;102722.97;;;17.95;75.27
72370;BME280;60343;-32.030;115.880;2023-07-30T04:34:48;102716.00;;;18.00;76.13
72370;BME280;60343;-32.030;115.880;2023-07-30T04:37:23;102717.28;;;18.13;76.29
72370;BME280;60343;-32.030;115.880;2023-07-30T04:39:57;102712.19;;;18.18;76.37
72370;BME280;60343;-32.030;115.880;2023-07-30T04:42:32;102712.97;;;18.34;75.49
72370;BME280;60343;-32.030;115.880;2023-07-30T04:45:12;102709.34;;;18.42;74.64
72370;BME280;60343;-32.030;115.880;2023-07-30T04:47:46;102711.66;;;18.53;75.05
72370;BME280;60343;-32.030;115.880;2023-07-30T04:50:21;102708.75;;;18.63;75.06
72370;BME280;60343;-32.030;115.880;2023-07-30T04:52:55;102711.75;;;18.76;73.95
72370;BME280;60343;-32.030;115.880;2023-07-30T04:55:30;102702.44;;;18.93;72.28
72370;BME280;60343;-32.030;115.880;2023-07-30T04:58:04;102704.75;;;19.04;70.61
72370;BME280;60343;-32.030;115.880;2023-07-30T05:00:44;102700.75;;;19.15;70.63
72370;BME280;60343;-32.030;115.880;2023-07-30T05:03:19;102694.84;;;19.11;71.56
72370;BME280;60343;-32.030;115.880;2023-07-30T05:05:54;102699.38;;;19.19;69.07
72370;BME280;60343;-32.030;115.880;2023-07-30T05:08:28;102689.91;;;19.15;70.04
72370;BME280;60343;-32.030;115.880;2023-07-30T05:11:03;102689.59;;;19.10;67.43
72370;BME280;60343;-32.030;115.880;2023-07-30T05:13:38;102693.16;;;19.10;68.26
72370;BME280;60343;-32.030;115.880;2023-07-30T05:16:18;102679.69;;;19.17;67.84
72370;BME280;60343;-32.030;115.880;2023-07-30T05:18:52;102689.34;;;19.19;67.84
72370;BME280;60343;-32.030;115.880;2023-07-30T05:21:27;102683.84;;;19.27;67.38
72370;BME280;60343;-32.030;115.880;2023-07-30T05:24:02;102676.94;;;19.40;66.14
72370;BME280;60343;-32.030;115.880;2023-07-30T05:26:36;102681.69;;;19.46;67.70
72370;BME280;60343;-32.030;115.880;2023-07-30T05:29:11;102671.09;;;19.65;67.37
72370;BME280;60343;-32.030;115.880;2023-07-30T05:31:51;102674.19;;;19.62;66.37
72370;BME280;60343;-32.030;115.880;2023-07-30T05:34:25;102674.66;;;19.66;67.08
72370;BME280;60343;-32.030;115.880;2023-07-30T05:37:00;102672.69;;;19.75;67.68
72370;BME280;60343;-32.030;115.880;2023-07-30T05:39:34;102672.59;;;19.83;67.21
72370;BME280;60343;-32.030;115.880;2023-07-30T05:42:09;102667.53;;;19.80;66.31
72370;BME280;60343;-32.030;115.880;2023-07-30T05:44:43;102667.81;;;19.85;67.14
72370;BME280;60343;-32.030;115.880;2023-07-30T05:47:23;102668.84;;;19.84;67.60
72370;BME280;60343;-32.030;115.880;2023-07-30T05:49:58;102668.09;;;19.90;65.97
72370;BME280;60343;-32.030;115.880;2023-07-30T05:52:33;102669.97;;;19.89;66.25
72370;BME280;60343;-32.030;115.880;2023-07-30T05:55:07;102667.16;;;19.83;67.27
72370;BME280;60343;-32.030;115.880;2023-07-30T05:57:42;102672.69;;;19.75;67.59
72370;BME280;60343;-32.030;115.880;2023-07-30T06:00:17;102659.00;;;19.68;67.81
72370;BME280;60343;-32.030;115.880;2023-07-30T06:02:57;102663.53;;;19.61;68.55
72370;BME280;60343;-32.030;115.880;2023-07-30T06:05:38;102663.41;;;19.54;68.44
72370;BME280;60343;-32.030;115.880;2023-07-30T06:08:12;102658.16;;;19.53;68.61
72370;BME280;60343;-32.030;115.880;2023-07-30T06:10:47;102654.13;;;19.63;66.73
72370;BME280;60343;-32.030;115.880;2023-07-30T06:13:21;102652.81;;;19.74;67.45
72370;BME280;60343;-32.030;115.880;2023-07-30T06:15:56;102648.53;;;19.65;65.79
72370;BME280;60343;-32.030;115.880;2023-07-30T06:18:36;102651.13;;;19.73;66.79
72370;BME280;60343;-32.030;115.880;2023-07-30T06:21:10;102647.09;;;19.84;63.92
72370;BME280;60343;-32.030;115.880;2023-07-30T06:23:45;102647.66;;;19.94;64.84
72370;BME280;60343;-32.030;115.880;2023-07-30T06:26:19;102653.25;;;20.07;65.20
72370;BME280;60343;-32.030;115.880;2023-07-30T06:28:54;102642.41;;;19.92;65.50
72370;BME280;60343;-32.030;115.880;2023-07-30T06:31:29;102651.75;;;20.19;65.76
72370;BME280;60343;-32.030;115.880;2023-07-30T06:34:09;102653.38;;;20.49;63.67
72370;BME280;60343;-32.030;115.880;2023-07-30T06:36:43;102649.72;;;20.57;64.17
72370;BME280;60343;-32.030;115.880;2023-07-30T06:39:18;102653.00;;;20.74;63.12
72370;BME280;60343;-32.030;115.880;2023-07-30T06:41:52;102650.59;;;21.07;62.19
72370;BME280;60343;-32.030;115.880;2023-07-30T06:44:27;102646.31;;;21.19;62.60
72370;BME280;60343;-32.030;115.880;2023-07-30T06:47:01;102647.53;;;21.37;61.80
72370;BME280;60343;-32.030;115.880;2023-07-30T06:49:42;102650.81;;;21.61;61.20
72370;BME280;60343;-32.030;115.880;2023-07-30T06:52:16;102654.28;;;21.48;59.46
72370;BME280;60343;-32.030;115.880;2023-07-30T06:54:50;102657.03;;;21.20;62.29
72370;BME280;60343;-32.030;115.880;2023-07-30T06:57:25;102653.91;;;21.02;60.34
72370;BME280;60343;-32.030;115.880;2023-07-30T07:00:00;102650.88;;;20.69;62.87
72370;BME280;60343;-32.030;115.880;2023-07-30T07:02:34;102649.44;;;20.73;61.74
72370;BME280;60343;-32.030;115.880;2023-07-30T07:05:14;102657.81;;;20.72;61.93
72370;BME280;60343;-32.030;115.880;2023-07-30T07:07:49;102662.91;;;20.60;61.60
72370;BME280;60343;-32.030;115.880;2023-07-30T07:10:24;102666.19;;;20.20;62.30
72370;BME280;60343;-32.030;115.880;2023-07-30T07:12:58;102668.66;;;20.00;62.14
72370;BME280;60343;-32.030;115.880;2023-07-30T07:15:33;102672.88;;;19.88;62.65
72370;BME280;60343;-32.030;115.880;2023-07-30T07:18:07;102675.59;;;19.88;63.10
72370;BME280;60343;-32.030;115.880;2023-07-30T07:20:48;102685.91;;;19.78;63.12
72370;BME280;60343;-32.030;115.880;2023-07-30T07:23:22;102682.53;;;19.76;62.42
72370;BME280;60343;-32.030;115.880;2023-07-30T07:25:57;102684.59;;;19.59;64.10
72370;BME280;60343;-32.030;115.880;2023-07-30T07:28:31;102676.72;;;19.64;65.10
72370;BME280;60343;-32.030;115.880;2023-07-30T07:31:06;102682.31;;;19.62;64.67
72370;BME280;60343;-32.030;115.880;2023-07-30T07:33:41;102681.75;;;19.52;65.20
72370;BME280;60343;-32.030;115.880;2023-07-30T07:36:21;102682.69;;;19.45;65.91
72370;BME280;60343;-32.030;115.880;2023-07-30T07:38:55;102684.06;;;19.41;65.87
72370;BME280;60343;-32.030;115.880;2023-07-30T07:41:30;102687.34;;;19.36;66.42
72370;BME280;60343;-32.030;115.880;2023-07-30T07:44:04;102686.84;;;19.33;66.35
72370;BME280;60343;-32.030;115.880;2023-07-30T07:46:39;102688.53;;;19.34;67.27
72370;BME280;60343;-32.030;115.880;2023-07-30T07:49:13;102693.22;;;19.25;67.55
72370;BME280;60343;-32.030;115.880;2023-07-30T07:51:53;102689.66;;;19.24;67.04
72370;BME280;60343;-32.030;115.880;2023-07-30T07:54:28;102694.84;;;19.11;67.79
72370;BME280;60343;-32.030;115.880;2023-07-30T07:57:03;102689.09;;;19.06;68.94
72370;BME280;60343;-32.030;115.880;2023-07-30T07:59:37;102699.56;;;18.95;70.34
72370;BME280;60343;-32.030;115.880;2023-07-30T08:02:14;102687.38;;;18.91;69.21
72370;BME280;60343;-32.030;115.880;2023-07-30T08:04:49;102688.53;;;18.73;70.08
72370;BME280;60343;-32.030;115.880;2023-07-30T08:07:29;102689.91;;;18.69;70.50
72370;BME280;60343;-32.030;115.880;2023-07-30T08:10:03;102695.19;;;18.63;71.11
72370;BME280;60343;-32.030;115.880;2023-07-30T08:12:38;102697.75;;;18.64;70.77
72370;BME280;60343;-32.030;115.880;2023-07-30T08:15:13;102694.66;;;18.67;70.12
72370;BME280;60343;-32.030;115.880;2023-07-30T08:17:47;102695.38;;;18.61;69.43
72370;BME280;60343;-32.030;115.880;2023-07-30T08:20:22;102696.47;;;18.44;71.06
72370;BME280;60343;-32.030;115.880;2023-07-30T08:23:02;102699.72;;;18.39;71.99
72370;BME280;60343;-32.030;115.880;2023-07-30T08:25:36;102709.03;;;18.45;72.55
72370;BME280;60343;-32.030;115.880;2023-07-30T08:28:11;102702.97;;;18.35;74.30
72370;BME280;60343;-32.030;115.880;2023-07-30T08:30:45;102709.09;;;18.21;75.36
72370;BME280;60343;-32.030;115.880;2023-07-30T08:33:20;102710.38;;;18.10;76.33
72370;BME280;60343;-32.030;115.880;2023-07-30T08:35:56;102719.59;;;17.85;77.56
72370;BME280;60343;-32.030;115.880;2023-07-30T08:38:36;102716.38;;;17.81;78.30
72370;BME280;60343;-32.030;115.880;2023-07-30T08:41:11;102723.34;;;17.68;80.22
72370;BME280;60343;-32.030;115.880;2023-07-30T08:43:46;102722.69;;;17.49;80.71
72370;BME280;60343;-32.030;115.880;2023-07-30T08:46:21;102713.03;;;17.47;81.32
72370;BME280;60343;-32.030;115.880;2023-07-30T08:48:55;102713.03;;;17.31;82.17
72370;BME280;60343;-32.030;115.880;2023-07-30T08:51:32;102718.28;;;17.24;82.81
72370;BME280;60343;-32.030;115.880;2023-07-30T08:54:16;102718.28;;;17.24;82.32
72370;BME280;60343;-32.030;115.880;2023-07-30T08:56:51;102720.00;;;17.25;82.31
72370;BME280;60343;-32.030;115.880;2023-07-30T08:59:28;102724.69;;;17.07;82.49
72370;BME280;60343;-32.030;115.880;2023-07-30T09:02:18;102725.56;;;16.99;83.59
72370;BME280;60343;-32.030;115.880;2023-07-30T09:05:00;102720.47;;;16.96;83.86
72370;BME280;60343;-32.030;115.880;2023-07-30T09:07:35;102729.28;;;16.98;84.36
72370;BME280;60343;-32.030;115.880;2023-07-30T09:10:15;102732.97;;;16.97;83.68
72370;BME280;60343;-32.030;115.880;2023-07-30T09:12:54;102728.59;;;16.88;84.02
72370;BME280;60343;-32.030;115.880;2023-07-30T09:15:33;102733.59;;;16.75;84.92
72370;BME280;60343;-32.030;115.880;2023-07-30T09:18:06;102740.41;;;16.79;84.22
72370;BME280;60343;-32.030;115.880;2023-07-30T09:20:42;102728.34;;;16.65;84.32
72370;BME280;60343;-32.030;115.880;2023-07-30T09:23:18;102739.66;;;16.61;84.56
72370;BME280;60343;-32.030;115.880;2023-07-30T09:25:58;102737.81;;;16.61;84.13
72370;BME280;60343;-32.030;115.880;2023-07-30T09:28:33;102734.88;;;16.55;84.21
72370;BME280;60343;-32.030;115.880;2023-07-30T09:31:08;102747.72;;;16.53;84.67
72370;BME280;60343;-32.030;115.880;2023-07-30T09:33:43;102736.41;;;16.57;84.25
72370;BME280;60343;-32.030;115.880;2023-07-30T09:36:19;102753.66;;;16.56;84.01
72370;BME280;60343;-32.030;115.880;2023-07-30T09:38:54;102748.72;;;16.52;84.46
72370;BME280;60343;-32.030;115.880;2023-07-30T09:41:34;102746.38;;;16.49;84.98
72370;BME280;60343;-32.030;115.880;2023-07-30T09:44:09;102749.38;;;16.46;85.62
72370;BME280;60343;-32.030;115.880;2023-07-30T09:46:45;102756.63;;;16.45;85.52
72370;BME280;60343;-32.030;115.880;2023-07-30T09:49:19;102756.50;;;16.47;85.67
72370;BME280;60343;-32.030;115.880;2023-07-30T09:51:54;102761.38;;;16.43;85.65
72370;BME280;60343;-32.030;115.880;2023-07-30T09:54:29;102754.28;;;16.42;86.12
72370;BME280;60343;-32.030;115.880;2023-07-30T09:57:10;102762.06;;;16.45;85.98
72370;BME280;60343;-32.030;115.880;2023-07-30T09:59:45;102769.31;;;16.45;86.66
72370;BME280;60343;-32.030;115.880;2023-07-30T10:02:21;102760.53;;;16.43;86.79
72370;BME280;60343;-32.030;115.880;2023-07-30T10:04:57;102766.91;;;16.34;86.89
72370;BME280;60343;-32.030;115.880;2023-07-30T10:07:34;102776.03;;;16.33;87.49
72370;BME280;60343;-32.030;115.880;2023-07-30T10:10:11;102779.06;;;16.29;87.52
72370;BME280;60343;-32.030;115.880;2023-07-30T10:12:52;102783.25;;;16.24;87.69
72370;BME280;60343;-32.030;115.880;2023-07-30T10:15:28;102782.91;;;16.19;88.32
72370;BME280;60343;-32.030;115.880;2023-07-30T10:18:12;102788.25;;;16.11;88.27
72370;BME280;60343;-32.030;115.880;2023-07-30T10:21:02;102787.19;;;16.04;88.29
72370;BME280;60343;-32.030;115.880;2023-07-30T10:23:48;102792.38;;;15.97;88.97
72370;BME280;60343;-32.030;115.880;2023-07-30T10:26:27;102785.06;;;15.89;88.84
72370;BME280;60343;-32.030;115.880;2023-07-30T10:29:18;102790.66;;;15.88;89.22
72370;BME280;60343;-32.030;115.880;2023-07-30T10:31:55;102789.56;;;15.81;89.04
72370;BME280;60343;-32.030;115.880;2023-07-30T10:34:45;102793.28;;;15.80;89.30
72370;BME280;60343;-32.030;115.880;2023-07-30T10:37:21;102795.31;;;15.78;89.39
72370;BME280;60343;-32.030;115.880;2023-07-30T10:39:55;102800.84;;;15.76;89.41
72370;BME280;60343;-32.030;115.880;2023-07-30T10:42:35;102806.56;;;15.73;89.50
72370;BME280;60343;-32.030;115.880;2023-07-30T10:45:15;102804.34;;;15.69;89.57
72370;BME280;60343;-32.030;115.880;2023-07-30T10:47:49;102804.97;;;15.63;89.93
72370;BME280;60343;-32.030;115.880;2023-07-30T10:50:24;102808.44;;;15.55;89.71
72370;BME280;60343;-32.030;115.880;2023-07-30T10:52:58;102810.91;;;15.49;89.73
72370;BME280;60343;-32.030;115.880;2023-07-30T10:55:33;102815.22;;;15.41;90.42
72370;BME280;60343;-32.030;115.880;2023-07-30T10:58:08;102811.13;;;15.37;90.29
72370;BME280;60343;-32.030;115.880;2023-07-30T11:00:49;102815.28;;;15.32;90.72
72370;BME280;60343;-32.030;115.880;2023-07-30T11:03:26;102817.47;;;15.28;90.82
72370;BME280;60343;-32.030;115.880;2023-07-30T11:06:00;102824.47;;;15.21;90.46
72370;BME280;60343;-32.030;115.880;2023-07-30T11:08:36;102829.72;;;15.23;90.46
72370;BME280;60343;-32.030;115.880;2023-07-30T11:11:11;102830.31;;;15.17;90.51
72370;BME280;60343;-32.030;115.880;2023-07-30T11:13:47;102835.47;;;15.10;90.65
72370;BME280;60343;-32.030;115.880;2023-07-30T11:16:27;102829.28;;;15.00;90.65
72370;BME280;60343;-32.030;115.880;2023-07-30T11:19:02;102832.06;;;14.90;91.22
72370;BME280;60343;-32.030;115.880;2023-07-30T11:21:47;102838.22;;;14.83;91.38
72370;BME280;60343;-32.030;115.880;2023-07-30T11:24:22;102844.19;;;14.77;91.78
72370;BME280;60343;-32.030;115.880;2023-07-30T11:26:59;102843.78;;;14.72;91.36
72370;BME280;60343;-32.030;115.880;2023-07-30T11:29:34;102845.38;;;14.65;91.46
72370;BME280;60343;-32.030;115.880;2023-07-30T11:32:15;102843.31;;;14.58;92.08
72370;BME280;60343;-32.030;115.880;2023-07-30T11:34:53;102845.44;;;14.55;92.36
72370;BME280;60343;-32.030;115.880;2023-07-30T11:37:28;102846.88;;;14.49;91.95
72370;BME280;60343;-32.030;115.880;2023-07-30T11:40:03;102854.53;;;14.44;92.60
72370;BME280;60343;-32.030;115.880;2023-07-30T11:42:37;102854.84;;;14.41;92.51
72370;BME280;60343;-32.030;115.880;2023-07-30T11:45:22;102864.78;;;14.41;92.39
72370;BME280;60343;-32.030;115.880;2023-07-30T11:48:08;102863.78;;;14.42;92.70
72370;BME280;60343;-32.030;115.880;2023-07-30T11:50:46;102861.94;;;14.42;93.36
72370;BME280;60343;-32.030;115.880;2023-07-30T11:53:20;102865.31;;;14.44;93.27
72370;BME280;60343;-32.030;115.880;2023-07-30T11:55:55;102863.34;;;14.46;92.87
72370;BME280;60343;-32.030;115.880;2023-07-30T11:58:29;102853.97;;;14.50;92.84
72370;BME280;60343;-32.030;115.880;2023-07-30T12:01:04;102851.13;;;14.52;93.37
72370;BME280;60343;-32.030;115.880;2023-07-30T12:03:45;102857.19;;;14.54;92.53
72370;BME280;60343;-32.030;115.880;2023-07-30T12:06:19;102857.38;;;14.52;92.44
72370;BME280;60343;-32.030;115.880;2023-07-30T12:08:54;102852.97;;;14.51;93.08
72370;BME280;60343;-32.030;115.880;2023-07-30T12:11:28;102854.28;;;14.47;93.27
72370;BME280;60343;-32.030;115.880;2023-07-30T12:14:03;102854.84;;;14.41;92.69
72370;BME280;60343;-32.030;115.880;2023-07-30T12:16:38;102864.22;;;14.37;93.37
72370;BME280;60343;-32.030;115.880;2023-07-30T12:19:18;102854.44;;;14.36;93.45
72370;BME280;60343;-32.030;115.880;2023-07-30T12:21:52;102852.59;;;14.37;93.92
72370;BME280;60343;-32.030;115.880;2023-07-30T12:24:27;102855.00;;;14.40;94.31
72370;BME280;60343;-32.030;115.880;2023-07-30T12:27:01;102859.94;;;14.44;94.40
72370;BME280;60343;-32.030;115.880;2023-07-30T12:29:36;102854.28;;;14.47;94.36
72370;BME280;60343;-32.030;115.880;2023-07-30T12:32:11;102857.50;;;14.51;93.61
72370;BME280;60343;-32.030;115.880;2023-07-30T12:34:51;102863.88;;;14.50;93.61
72370;BME280;60343;-32.030;115.880;2023-07-30T12:37:26;102872.81;;;14.50;93.21
72370;BME280;60343;-32.030;115.880;2023-07-30T12:40:03;102864.06;;;14.48;93.22
72370;BME280;60343;-32.030;115.880;2023-07-30T12:42:38;102874.66;;;14.50;93.33
72370;BME280;60343;-32.030;115.880;2023-07-30T12:45:12;102870.13;;;14.50;93.56
72370;BME280;60343;-32.030;115.880;2023-07-30T12:47:47;102870.13;;;14.50;94.25
72370;BME280;60343;-32.030;115.880;2023-07-30T12:50:27;102873.22;;;14.55;93.93
72370;BME280;60343;-32.030;115.880;2023-07-30T12:53:01;102877.91;;;14.63;93.63
72370;BME280;60343;-32.030;115.880;2023-07-30T12:55:36;102875.75;;;14.67;94.29
72370;BME280;60343;-32.030;115.880;2023-07-30T12:58:10;102866.09;;;14.64;94.45
72370;BME280;60343;-32.030;115.880;2023-07-30T13:00:45;102885.09;;;14.72;93.50
72370;BME280;60343;-32.030;115.880;2023-07-30T13:03:19;102871.44;;;14.74;93.34
72370;BME280;60343;-32.030;115.880;2023-07-30T13:06:00;102869.44;;;14.76;92.88